Nearby METAR Reports

 

KTTN - Trenton, New Jersey, USA
Distance from station: WNW 11mi, 17km
Updated: Thu, 04-Jun-2020 5:53pm EDT
Clear
Clear
 Wind from S
Wind: S 10 mph , 17 km/h
Temperature: 86°F , 30°C
Heat Index: 88°F , 31°C
Dew Point: 64°F , 18°C
Humidity: 49%
Barometer: 29.83 inHg , 1010.2 hPa
Clouds: Clear
Visibility: 10 miles , 16 km
2020/06/04 21:53 KTTN 042153Z 18009KT 10SM CLR 30/18 A2983
KWRI - Wrightst/Mcguire, New Jersey, USA
Distance from station: SSE 14mi, 22km
Updated: Thu, 04-Jun-2020 5:56pm EDT
Clear
Clear
 Wind from WSW
Wind: WSW 14 mph , 22 km/h
Temperature: 88°F , 31°C
Heat Index: 89°F , 32°C
Dew Point: 63°F , 17°C
Humidity: 43%
Barometer: 29.85 inHg , 1010.8 hPa
Clouds: Clear
Visibility: 10 miles , 16 km
2020/06/04 21:56 KWRI 042156Z AUTO 24012KT 10SM CLR 31/17 A2985 RMK AO2 SLP107 T03090168 $
 
KNEL - Lakehurst Nas, New Jersey, USA
Distance from station: SE 21mi, 34km
Updated: Thu, 04-Jun-2020 6:00pm EDT
Few Clouds
Few Clouds
 Wind from S
Wind: S 9 mph , 15 km/h
Temperature: 84°F , 29°C
Heat Index: 87°F , 31°C
Dew Point: 68°F , 20°C
Humidity: 58%
Barometer: 29.84 inHg , 1010.5 hPa
Clouds: Few Clouds
Visibility: 10 miles , 16 km
Cloud details: Few Clouds 6000 ft
2020/06/04 22:00 KNEL 042200Z 18008KT 10SM FEW060 29/20 A2984 RMK AO2 SLPNO T02940194 $
KPNE - Philadelphia/Ne, Pennsylvania, USA
Distance from station: WSW 22mi, 35km
Updated: Thu, 04-Jun-2020 5:54pm EDT
Clear
Clear
 Wind from SSW
Wind: SSW 9 mph , 15 km/h
Temperature: 90°F , 32°C
Dew Point: 61°F , 16°C
Humidity: 38%
Barometer: 29.85 inHg , 1010.8 hPa
Clouds: Clear
Visibility: 10 miles , 16 km
2020/06/04 21:54 KPNE 042154Z AUTO 21008KT 10SM CLR 32/16 A2985 RMK AO2 SLP107 T03170156
 
KVAY - Mount Holly, New Jersey, USA
Distance from station: SSW 22mi, 35km
Updated: Thu, 04-Jun-2020 5:54pm EDT
Clear
Clear
 Wind from SW
Wind: SW 5 mph , 7 km/h
Temperature: 88°F , 31°C
Heat Index: 88°F , 31°C
Dew Point: 61°F , 16°C
Humidity: 40%
Barometer: 29.84 inHg , 1010.5 hPa
Clouds: Clear
Visibility: 10 miles , 16 km
2020/06/04 21:54 KVAY 042154Z AUTO 22004KT 10SM CLR 31/16 A2984 RMK AO2 SLPNO T03110161
KMJX - Toms River, New Jersey, USA
Distance from station: SE 26mi, 42km
Updated: Thu, 04-Jun-2020 5:56pm EDT
Clear
Clear
 Wind from S
Wind: S 13 mph , 20 km/h
Temperature: 86°F , 30°C
Heat Index: 88°F , 31°C
Dew Point: 66°F , 19°C
Humidity: 52%
Barometer: 29.86 inHg , 1011.2 hPa
Clouds: Clear
Visibility: 10 miles , 16 km
2020/06/04 21:56 KMJX 042156Z AUTO 17011KT 10SM CLR 30/19 A2986 RMK AO2 SLP115 T03000189
 
KDYL - Doylestown, Pennsylvania, USA
Distance from station: WNW 27mi, 43km
Updated: Thu, 04-Jun-2020 5:54pm EDT
Clear
Clear
 Wind from S
Wind: S 8 mph , 13 km/h
Temperature: 88°F , 31°C
Heat Index: 88°F , 31°C
Dew Point: 61°F , 16°C
Humidity: 40%
Barometer: 29.84 inHg , 1010.5 hPa
Clouds: Clear
Visibility: 10 miles , 16 km
2020/06/04 21:54 KDYL 042154Z AUTO 18007KT 10SM CLR 31/16 A2984 RMK AO2 SLP099 T03060161
KBLM - Belmar/Farmdale, New Jersey, USA
Distance from station: E 28mi, 45km
Updated: Thu, 04-Jun-2020 5:56pm EDT
Clear
Clear
 Wind from SSE
Wind: SSE 10 mph , 17 km/h
Temperature: 82°F , 28°C
Heat Index: 85°F , 29°C
Dew Point: 68°F , 20°C
Humidity: 62%
Barometer: 29.87 inHg , 1011.5 hPa
Clouds: Clear
Visibility: 10 miles , 16 km
2020/06/04 21:56 KBLM 042156Z AUTO 15009KT 10SM CLR 28/20 A2987 RMK AO2 SLP113 T02780200
 
KSMQ - Somerville, New Jersey, USA
Distance from station: N 28mi, 45km
Updated: Thu, 04-Jun-2020 5:53pm EDT
Clear
Clear
 Wind from SSW
Wind: SSW 3 mph , 6 km/h
Temperature: 84°F , 29°C
Heat Index: 85°F , 29°C
Dew Point: 63°F , 17°C
Humidity: 48%
Barometer: 29.82 inHg , 1009.8 hPa
Clouds: Clear
Visibility: 10 miles , 16 km
2020/06/04 21:53 KSMQ 042153Z AUTO 20003KT 10SM CLR 29/17 A2982 RMK AO2 SLP096 T02940167
KLOM - Philly Wings F, Pennsylvania, USA
Distance from station: W 34mi, 54km
Updated: Thu, 04-Jun-2020 6:35pm EDT
Clear
Clear
 Wind from SSE
Wind: SSE 7 mph , 11 km/h
Temperature: 84°F , 29°C
Heat Index: 85°F , 29°C
Dew Point: 63°F , 17°C
Humidity: 48%
Barometer: 29.85 inHg , 1010.8 hPa
Clouds: Clear
Visibility: 10 miles , 16 km
2020/06/04 22:35 KLOM 042235Z AUTO 16006KT 10SM CLR 29/17 A2985 RMK AO2 T02860174
 
KLDJ - Linden, New Jersey, USA
Distance from station: NE 35mi, 56km
Updated: Thu, 04-Jun-2020 6:35pm EDT
Clear
Clear
 Wind from calm
Wind: Calm
Temperature: 84°F , 29°C
Heat Index: 84°F , 29°C
Dew Point: 61°F , 16°C
Humidity: 45%
Barometer: 29.84 inHg , 1010.5 hPa
Clouds: Clear
Visibility: 10 miles , 16 km
2020/06/04 22:35 KLDJ 042235Z AUTO 00000KT 10SM CLR 29/16 A2984 RMK AO2 T02930157
KCKZ - Perkasie, Pennsylvania, USA
Distance from station: WNW 36mi, 58km
Updated: Thu, 04-Jun-2020 6:35pm EDT
Clear
Clear
 Wind from calm
Wind: Calm
Temperature: 82°F , 28°C
Heat Index: 84°F , 29°C
Dew Point: 64°F , 18°C
Humidity: 55%
Barometer: 29.88 inHg , 1011.9 hPa
Clouds: Clear
Visibility: 10 miles , 16 km
2020/06/04 22:35 KCKZ 042235Z AUTO 00000KT 10SM CLR 28/18 A2988 RMK AO2
 
KPHL - Philadelphia, Pennsylvania, USA
Distance from station: SW 40mi, 64km
Updated: Thu, 04-Jun-2020 5:54pm EDT
Mostly cloudy
Mostly cloudy
 Wind from S
Wind: S 8 mph , 13 km/h
Temperature: 88°F , 31°C
Heat Index: 88°F , 31°C
Dew Point: 61°F , 16°C
Humidity: 40%
Barometer: 29.84 inHg , 1010.5 hPa
Clouds: Mostly cloudy
Visibility: 10 miles , 16 km
Cloud details: Few Clouds 6000 ft
Mostly cloudy 25000 ft
2020/06/04 21:54 KPHL 042154Z 18007KT 10SM FEW060 BKN250 31/16 A2984 RMK AO2 SLP103 T03060161
KEWR - Newark, New Jersey, USA
Distance from station: NE 41mi, 66km
Updated: Thu, 04-Jun-2020 5:51pm EDT
Mostly cloudy
Mostly cloudy
 Wind from E
Wind: E 7 mph , 11 km/h
Temperature: 82°F , 28°C
Heat Index: 83°F , 28°C
Dew Point: 63°F , 17°C
Humidity: 51%
Barometer: 29.84 inHg , 1010.5 hPa
Clouds: Mostly cloudy
Visibility: 10 miles , 16 km
Cloud details: Few Clouds 5000 ft
Partly cloudy 11000 ft
Mostly cloudy 25000 ft
2020/06/04 21:51 KEWR 042151Z 10006KT 10SM FEW050 SCT110 BKN250 28/17 A2984 RMK AO2 SLP104 T02830172
 
KMMU - Morristown Muni, New Jersey, USA
Distance from station: NNE 41mi, 66km
Updated: Thu, 04-Jun-2020 2:55pm EDT
NOT Current
Partly cloudy
Partly cloudy
 Wind from WSW
Wind: WSW 9 mph , 15 km/h
Temperature: 84°F , 29°C
Heat Index: 84°F , 29°C
Dew Point: 59°F , 15°C
Humidity: 43%
Barometer: 29.88 inHg , 1011.9 hPa
Clouds: Partly cloudy
Visibility: 10 miles , 16 km
Cloud details: Partly cloudy 25000 ft
2020/06/04 18:55 KMMU 041855Z 24008KT 10SM SCT250 29/15 A2988
KUKT - Quakertown Arp, Pennsylvania, USA
Distance from station: WNW 42mi, 68km
Updated: Thu, 04-Jun-2020 6:35pm EDT
Clear
Clear
 Wind from calm
Wind: Calm
Temperature: 84°F , 29°C
Heat Index: 85°F , 29°C
Dew Point: 64°F , 18°C
Humidity: 51%
Barometer: 29.87 inHg , 1011.5 hPa
Clouds: Clear
Visibility: 10 miles , 16 km
2020/06/04 22:35 KUKT 042235Z AUTO 00000KT 10SM CLR 29/18 A2987 RMK A01
 
KJRB - Manhattan/Dwntwn, New York, USA
Distance from station: NE 47mi, 75km
Updated: Thu, 04-Jun-2020 5:56pm EDT
Clear
Clear
 Wind from varies
Wind: varies 5 mph , 7 km/h
Temperature: 82°F , 28°C
Heat Index: 83°F , 28°C
Dew Point: 63°F , 17°C
Humidity: 51%
Barometer: 29.86 inHg , 1011.2 hPa
Clouds: Clear
Visibility: 10 miles , 16 km
2020/06/04 21:56 KJRB 042156Z AUTO VRB04KT 10SM CLR 28/17 A2986 RMK AO2 SLP112 T02780167
KPTW - Pottstown, Pennsylvania, USA
Distance from station: W 48mi, 77km
Updated: Thu, 04-Jun-2020 5:54pm EDT
Clear
Clear
 Wind from S
Wind: S 8 mph , 13 km/h
Temperature: 84°F , 29°C
Heat Index: 85°F , 29°C
Dew Point: 63°F , 17°C
Humidity: 48%
Barometer: 29.85 inHg , 1010.8 hPa
Clouds: Clear
Visibility: 9 miles , 14 km
2020/06/04 21:54 KPTW 042154Z AUTO 19007KT 9SM CLR 29/17 A2985 RMK AO2 SLP103 T02890172
 
KCDW - Caldwell, New Jersey, USA
Distance from station: NNE 50mi, 80km
Updated: Thu, 04-Jun-2020 5:53pm EDT
Partly cloudy
Partly cloudy
 Wind from varies
Wind: varies 5 mph , 7 km/h
Temperature: 88°F , 31°C
Dew Point: 54°F , 12°C
Humidity: 31%
Barometer: 29.83 inHg , 1010.2 hPa
Clouds: Partly cloudy
Visibility: 10 miles , 16 km
Cloud details: Partly cloudy 11000 ft
2020/06/04 21:53 KCDW 042153Z VRB04KT 10SM SCT110 31/12 A2983 RMK AO2 SLP107 T03060117